• Join FlightAware (Why Join?)
  • Login
  • US Flag 
11:31AM EST


 

Airport Tracker/Info


-or-


 

Live Flight TrackerFlight Track Log ✈ SWA709 ✈ 01-May-2013 ✈ KLAS - KSJC

Flight Track Log - Related Links

Times and Time Zones

All times are in EDT time to prevent confusion due to time zone crossing. See the SWA709 flight status page for this flight to view local times or setup timezone preferences in your user account.

Time Position Orientation Groundspeed Altitude Reporting Facility
EDT Latitude Longitude Course Direction KTS MPH feet Rate Location/Type
10:47AM 36.1072 -115.1525 270° West 163 188 3,500  Level Los Angeles Center
10:48AM 36.1247 -115.1733 316° Northwest 195 224 4,300 2,700 Climbing Los Angeles Center
10:49AM 36.1033 -115.2444 250° West 243 280 7,600 3,420 Climbing Los Angeles Center
10:50AM 36.0314 -115.2706 196° South 252 290 11,300 2,700 Climbing Los Angeles Center
10:51AM 35.9436 -115.2964 193° South 299 344 13,300 2,400 Climbing Los Angeles Center
10:52AM 35.9222 -115.4097 257° West 344 396 16,300 2,700 Climbing Los Angeles Center
10:53AM 35.8834 -115.6940 270° West  Level FlightAware Approximate
10:53AM 35.9164 -115.5419 267° West 373 429 19,000  Level Los Angeles Center
10:54AM 35.9086 -115.6850 266° West 406 467 22,100 2,820 Climbing Los Angeles Center
10:55AM 35.9578 -115.8100 296° West 415 478 24,900 2,640 Climbing Los Angeles Center
10:56AM 36.0372 -115.9319 309° West 420 483 27,600 2,760 Climbing Los Angeles Center
10:57AM 36.1103 -116.0433 309° West 419 482 30,700 2,100 Climbing Los Angeles Center
10:58AM 36.1822 -116.1519 309° West 409 471 32,000 600 Climbing Los Angeles Center
10:59AM 36.2533 -116.2622 309° West 422 486 32,000  Level Los Angeles Center
11:00AM 36.3269 -116.3758 309° West 424 488 32,000  Level Los Angeles Center
11:01AM 36.3867 -116.5333 295° West 424 488 32,000  Level Los Angeles Center
11:02AM 36.4194 -116.6739 286° West 422 486 32,000  Level Los Angeles Center
11:03AM 36.4519 -116.8164 286° West 429 494 32,000  Level Los Angeles Center
11:04AM 36.4858 -116.9592 286° West 431 496 32,000  Level Los Angeles Center
11:05AM 36.5181 -117.1011 286° West 430 495 32,000  Level Los Angeles Center
11:06AM 36.5453 -117.2178 286° West 428 493 32,000  Level Los Angeles Center
11:07AM 36.5892 -117.4125 286° West 429 494 32,000  Level Los Angeles Center
11:08AM 36.6214 -117.5556 286° West 430 495 32,000  Level Los Angeles Center
11:09AM 36.6528 -117.6953 286° West 426 490 32,000  Level Los Angeles Center
11:10AM 36.6839 -117.8356 285° West 424 488 32,000  Level Los Angeles Center
11:11AM 36.7153 -117.9764 286° West 424 488 32,000  Level Los Angeles Center
11:12AM 36.7528 -118.1469 285° West 426 490 32,000  Level Los Angeles Center
11:13AM 36.7828 -118.2828 285° West 428 493 32,000  Level Los Angeles Center
11:14AM 36.8128 -118.4278 285° West 431 496 32,000  Level Los Angeles Center
11:15AM 36.8331 -118.5211 285° West 434 499 32,000  Level Oakland Center
11:16AM 36.8642 -118.6661 285° West 435 501 32,000  Level Oakland Center
11:17AM 36.8947 -118.8097 285° West 431 496 32,000 -60 Level Oakland Center
11:18AM 36.9250 -118.9572 284° West 436 502 31,900 -600 Descending Oakland Center
11:19AM 36.9558 -119.1022 285° West 434 499 30,900 -1,020 Descending Oakland Center
11:20AM 36.9867 -119.2481 285° West 437 503 29,900 -1,020 Descending Oakland Center
11:21AM 37.0172 -119.3956 285° West 440 506 28,900 -1,020 Descending Oakland Center
11:22AM 37.0472 -119.5444 284° West 439 505 27,900 -1,080 Descending Oakland Center
11:23AM 37.0764 -119.6889 284° West 431 496 26,800 -1,080 Descending Oakland Center
11:24AM 37.1106 -119.8553 284° West 424 488 25,700 -1,080 Descending Oakland Center
11:25AM 37.1392 -119.9989 284° West 422 486 24,700 -1,080 Descending Oakland Center
11:26AM 37.1678 -120.1403 284° West 418 481 23,600 -1,500 Descending Oakland Center
11:27AM 37.1944 -120.2775 284° West 405 466 21,700 -2,400 Descending Oakland Center
11:28AM 37.2167 -120.4167 281° West 393 452 18,800 -1,980 Descending Northern Cal TRACON
11:29AM 37.1833 -120.5500 253° West 442 509 17,800 -960 Descending Northern Cal TRACON
11:30AM 37.1667 -120.6833 261° West 377 434 16,900 -1,020 Descending Northern Cal TRACON
11:31AM 37.1333 -120.8167 253° West 376 433 15,800 -1,080 Descending Northern Cal TRACON
11:32AM 37.1000 -120.9333 250° West 378 435 14,900 -1,740 Descending Northern Cal TRACON
11:33AM 37.1000 -121.0500 270° West 376 433 12,500 -2,400 Descending Northern Cal TRACON
11:34AM 37.0833 -121.1667 260° West 371 427 10,400 -1,980 Descending Northern Cal TRACON
11:34AM 37.0831 -121.2050 269° West 373 429 10,000 -540 Descending Oakland Center
11:35AM 37.0717 -121.3189 263° West 346 398 9,700 -960 Descending Oakland Center
11:36AM 37.0644 -121.4197 265° West 305 351 8,100 -1,320 Descending Oakland Center
11:37AM 37.0925 -121.5142 290° West 288 331 7,000 -1,380 Descending Oakland Center
11:38AM 37.1253 -121.6072 294° West 292 336 5,300 -1,020 Descending Oakland Center
11:39AM 37.1550 -121.6928 294° West 279 321 5,000 -540 Descending Oakland Center
11:40AM 37.1900 -121.7478 309° West 233 268 4,300 -1,080 Descending Oakland Center
11:41AM 37.2378 -121.7944 322° Northwest 198 228 2,800 -1,080 Descending Oakland Center
11:43AM 37.2728 -121.8322 319° Northwest 180 207 2,200 -720 Descending Oakland Center
11:44AM 37.3036 -121.8669 318° Northwest 164 189 1,400 -780 Descending Oakland Center
11:45AM 37.3306 -121.8967 319° Northwest 146 168 700 9,120 Descending Oakland Center
11:46AM 37.3561 -121.9244 319° Northwest 131 151 20,000 18,960 Climbing Oakland Center
11:48AM 37.3500 -121.9167 North  Level FlightAware Approximate